Weather at Lübeck Blankensee Airport

Public forecast

Using degrees Celsius for public forecast. Weather courtesy of forecast.io.

Current aviation weather report (METAR) for Lübeck Blankensee Airport

2024/06/20 16:20 (retrieved 18 minutes ago)

EDHL 201620Z VRB02KT CAVOK 20/09 Q1019

Closest aviation forecast (TAF) to Lübeck Blankensee Airport

Closest forecast is Hamburg Helmut Schmidt Airport, 28.0 nm (51.9 km) WSW.

2024/06/20 12:27 (retrieved 4 hours ago)

TAF EDDH 201100Z 2012/2118 24004KT 9999 FEW035 BECMG 2015/2017 06005KT PROB30 TEMPO 2103/2112 SHRA BKN030CB BECMG 2109/2111 13007KT TEMPO 2112/2118 SHRA BKN020CB BECMG 2114/2116 25007KT PROB30 TEMPO 2114/2117 23015G30KT 2000 +TSGRRA BKN010CB